createdAt,value
2022-11-27T00:00:04.686Z,1032.75
2022-11-27T00:01:04.685Z,1032.62
2022-11-27T00:02:04.664Z,1032.61
2022-11-27T00:03:04.728Z,1032.58
2022-11-27T00:04:04.714Z,1032.56
2022-11-27T00:05:04.628Z,1032.51
2022-11-27T00:06:04.605Z,1032.51
2022-11-27T00:07:04.654Z,1032.49
2022-11-27T00:08:04.603Z,1032.49
2022-11-27T00:09:04.594Z,1032.39
2022-11-27T00:10:04.590Z,1032.36
2022-11-27T00:11:04.562Z,1032.39
2022-11-27T00:12:04.562Z,1032.39
2022-11-27T00:13:04.534Z,1032.38
2022-11-27T00:14:04.544Z,1032.45
2022-11-27T00:15:04.512Z,1032.39
2022-11-27T00:16:04.595Z,1032.38
2022-11-27T00:17:04.501Z,1032.39
2022-11-27T00:18:04.495Z,1032.44
2022-11-27T00:19:04.521Z,1032.38
2022-11-27T00:20:04.467Z,1032.39
2022-11-27T00:21:04.465Z,1032.39
2022-11-27T00:22:04.441Z,1032.38
2022-11-27T00:23:04.485Z,1032.38
2022-11-27T00:24:04.446Z,1032.36
2022-11-27T00:25:04.414Z,1032.35
2022-11-27T00:26:04.403Z,1032.34
2022-11-27T00:27:04.413Z,1032.33
2022-11-27T00:28:04.377Z,1032.30
2022-11-27T00:29:04.385Z,1032.29
2022-11-27T00:30:04.355Z,1032.30
2022-11-27T00:31:04.407Z,1032.29
2022-11-27T00:32:04.333Z,1032.28
2022-11-27T00:33:04.314Z,1032.30
2022-11-27T00:34:04.328Z,1032.32
2022-11-27T00:35:04.312Z,1032.37
2022-11-27T00:36:04.280Z,1032.38
2022-11-27T00:37:04.295Z,1032.38
2022-11-27T00:38:04.263Z,1032.39
2022-11-27T00:39:04.268Z,1032.39
2022-11-27T00:40:04.244Z,1032.45
2022-11-27T00:41:04.245Z,1032.49
2022-11-27T00:42:04.225Z,1032.46
2022-11-27T00:43:04.204Z,1032.51
2022-11-27T00:44:04.216Z,1032.53
2022-11-27T00:45:04.186Z,1032.49
2022-11-27T00:46:04.228Z,1032.46
2022-11-27T00:47:04.215Z,1032.38
2022-11-27T00:48:04.169Z,1032.38
2022-11-27T00:49:04.163Z,1032.37
2022-11-27T00:50:04.134Z,1032.36
2022-11-27T00:51:04.135Z,1032.34
2022-11-27T00:52:04.114Z,1032.36
2022-11-27T00:53:04.105Z,1032.36
2022-11-27T00:54:04.116Z,1032.38
2022-11-27T00:55:04.079Z,1032.50
2022-11-27T00:56:04.055Z,1032.57
2022-11-27T00:57:04.055Z,1032.59
2022-11-27T00:58:04.045Z,1032.59
2022-11-27T00:59:11.288Z,1032.59
2022-11-27T01:00:04.020Z,1032.60
2022-11-27T01:01:04.001Z,1032.62
2022-11-27T01:02:11.602Z,1032.61
2022-11-27T01:03:04.068Z,1032.60
2022-11-27T01:04:03.968Z,1032.62
2022-11-27T01:05:03.991Z,1032.61
2022-11-27T01:06:03.972Z,1032.61
2022-11-27T01:07:03.956Z,1032.60
2022-11-27T01:08:03.939Z,1032.59
2022-11-27T01:09:03.945Z,1032.58
2022-11-27T01:10:03.909Z,1032.54
2022-11-27T01:11:03.910Z,1032.53
2022-11-27T01:12:03.927Z,1032.47
2022-11-27T01:13:03.887Z,1032.45
2022-11-27T01:14:03.868Z,1032.45
2022-11-27T01:15:03.879Z,1032.47
2022-11-27T01:16:03.902Z,1032.49
2022-11-27T01:17:03.867Z,1032.49
2022-11-27T01:18:03.827Z,1032.49
2022-11-27T01:19:03.868Z,1032.46
2022-11-27T01:20:03.806Z,1032.38
2022-11-27T01:21:03.797Z,1032.38
2022-11-27T01:22:03.785Z,1032.35
2022-11-27T01:23:03.797Z,1032.39
2022-11-27T01:24:03.782Z,1032.31
2022-11-27T01:25:03.754Z,1032.25
2022-11-27T01:26:03.749Z,1032.24
2022-11-27T01:27:03.736Z,1032.20
2022-11-27T01:28:03.719Z,1032.21
2022-11-27T01:29:03.728Z,1032.19
2022-11-27T01:30:03.687Z,1032.18
2022-11-27T01:31:03.727Z,1032.15
2022-11-27T01:32:03.687Z,1032.16
2022-11-27T01:33:03.671Z,1032.18
2022-11-27T01:34:03.659Z,1032.23
2022-11-27T01:35:03.649Z,1032.20
2022-11-27T01:36:03.650Z,1032.17
2022-11-27T01:37:03.629Z,1032.16
2022-11-27T01:38:03.632Z,1032.09
2022-11-27T01:39:03.670Z,1032.10
2022-11-27T01:40:03.587Z,1032.04
2022-11-27T01:41:03.578Z,1032.08
2022-11-27T01:42:03.575Z,1032.07
2022-11-27T01:43:03.568Z,1032.09
2022-11-27T01:44:03.556Z,1032.12
2022-11-27T01:45:03.539Z,1032.09
2022-11-27T01:46:03.580Z,1032.11
2022-11-27T01:47:03.539Z,1032.13
2022-11-27T01:48:03.501Z,1032.11
2022-11-27T01:49:03.512Z,1032.14
2022-11-27T01:50:03.470Z,1032.13
2022-11-27T01:51:03.470Z,1032.13
2022-11-27T01:52:03.467Z,1032.14
2022-11-27T01:53:03.448Z,1032.07
2022-11-27T01:54:03.460Z,1032.10
2022-11-27T01:55:03.449Z,1032.11
2022-11-27T01:56:03.422Z,1032.12
2022-11-27T01:57:03.417Z,1032.11
2022-11-27T01:58:03.393Z,1032.11
2022-11-27T01:59:03.402Z,1032.10
2022-11-27T02:00:03.367Z,1032.12
2022-11-27T02:01:03.350Z,1032.11
2022-11-27T02:02:03.485Z,1032.12
2022-11-27T02:03:03.454Z,1032.12
2022-11-27T02:04:03.348Z,1032.18
2022-11-27T02:05:03.309Z,1032.18
2022-11-27T02:06:03.319Z,1032.14
2022-11-27T02:07:03.289Z,1032.07
2022-11-27T02:08:03.291Z,1032.06
2022-11-27T02:09:03.272Z,1032.02
2022-11-27T02:10:03.311Z,1031.99
2022-11-27T02:11:03.254Z,1031.99
2022-11-27T02:12:03.250Z,1032.01
2022-11-27T02:13:03.234Z,1032.06
2022-11-27T02:14:03.223Z,1032.02
2022-11-27T02:15:03.210Z,1032.01
2022-11-27T02:16:03.257Z,1031.96
2022-11-27T02:17:03.208Z,1031.94
2022-11-27T02:18:03.220Z,1031.94
2022-11-27T02:19:03.467Z,1031.93
2022-11-27T02:20:03.169Z,1031.90
2022-11-27T02:21:03.141Z,1031.87
2022-11-27T02:22:03.142Z,1031.87
2022-11-27T02:23:03.126Z,1031.83
2022-11-27T02:24:03.241Z,1031.83
2022-11-27T02:25:03.090Z,1031.81
2022-11-27T02:26:03.099Z,1031.80
2022-11-27T02:27:03.067Z,1031.79
2022-11-27T02:28:03.073Z,1031.78
2022-11-27T02:29:03.121Z,1031.75
2022-11-27T02:30:03.056Z,1031.73
2022-11-27T02:31:03.096Z,1031.73
2022-11-27T02:32:03.022Z,1031.73
2022-11-27T02:33:03.026Z,1031.69
2022-11-27T02:34:03.026Z,1031.64
2022-11-27T02:35:02.981Z,1031.62
2022-11-27T02:36:02.981Z,1031.56
2022-11-27T02:37:02.971Z,1031.54
2022-11-27T02:38:02.981Z,1031.56
2022-11-27T02:39:02.982Z,1031.53
2022-11-27T02:40:02.943Z,1031.51
2022-11-27T02:41:02.922Z,1031.49
2022-11-27T02:42:02.902Z,1031.47
2022-11-27T02:43:02.911Z,1031.43
2022-11-27T02:44:02.891Z,1031.40
2022-11-27T02:45:02.872Z,1031.37
2022-11-27T02:46:02.909Z,1031.35
2022-11-27T02:47:02.882Z,1031.37
2022-11-27T02:48:02.852Z,1031.35
2022-11-27T02:49:02.853Z,1031.41
2022-11-27T02:50:02.836Z,1031.39
2022-11-27T02:51:02.811Z,1031.36
2022-11-27T02:52:02.787Z,1031.41
2022-11-27T02:53:02.802Z,1031.39
2022-11-27T02:54:02.794Z,1031.40
2022-11-27T02:55:02.771Z,1031.39
2022-11-27T02:56:02.764Z,1031.40
2022-11-27T02:57:02.763Z,1031.40
2022-11-27T02:58:02.732Z,1031.44
2022-11-27T02:59:02.732Z,1031.41
2022-11-27T03:00:02.713Z,1031.41
2022-11-27T03:01:02.694Z,1031.45
2022-11-27T03:02:02.762Z,1031.45
2022-11-27T03:03:02.716Z,1031.42
2022-11-27T03:04:09.935Z,1031.43
2022-11-27T03:05:09.910Z,1031.41
2022-11-27T03:06:10.910Z,1031.36
2022-11-27T03:07:02.680Z,1031.31
2022-11-27T03:08:10.187Z,1031.30
2022-11-27T03:09:10.858Z,1031.27
2022-11-27T03:10:02.635Z,1031.26
2022-11-27T03:11:02.588Z,1031.25
2022-11-27T03:12:02.586Z,1031.28
2022-11-27T03:13:02.585Z,1031.26
2022-11-27T03:14:02.564Z,1031.29
2022-11-27T03:15:02.547Z,1031.28
2022-11-27T03:16:02.609Z,1031.24
2022-11-27T03:17:02.516Z,1031.19
2022-11-27T03:18:02.537Z,1031.15
2022-11-27T03:19:02.495Z,1031.14
2022-11-27T03:20:02.488Z,1031.14
2022-11-27T03:21:02.476Z,1031.14
2022-11-27T03:22:02.490Z,1031.15
2022-11-27T03:23:02.460Z,1031.13
2022-11-27T03:24:02.446Z,1031.14
2022-11-27T03:25:02.448Z,1031.14
2022-11-27T03:26:02.418Z,1031.13
2022-11-27T03:27:02.406Z,1031.10
2022-11-27T03:28:02.419Z,1031.21
2022-11-27T03:29:02.378Z,1031.22
2022-11-27T03:30:02.375Z,1031.23
2022-11-27T03:31:02.388Z,1031.26
2022-11-27T03:32:02.365Z,1031.21
2022-11-27T03:33:02.377Z,1031.20
2022-11-27T03:34:02.357Z,1031.18
2022-11-27T03:35:02.317Z,1031.18
2022-11-27T03:36:02.307Z,1031.21
2022-11-27T03:37:02.288Z,1031.14
2022-11-27T03:38:02.346Z,1031.07
2022-11-27T03:39:02.317Z,1031.07
2022-11-27T03:40:03.239Z,1031.04
2022-11-27T03:41:02.266Z,1031.03
2022-11-27T03:42:02.247Z,1031.04
2022-11-27T03:43:02.237Z,1031.06
2022-11-27T03:44:02.217Z,1031.08
2022-11-27T03:45:02.220Z,1031.12
2022-11-27T03:46:02.335Z,1031.11
2022-11-27T03:47:02.260Z,1031.09
2022-11-27T03:48:02.208Z,1031.09
2022-11-27T03:49:02.176Z,1031.06
2022-11-27T03:50:02.188Z,1031.00
2022-11-27T03:51:02.158Z,1030.96
2022-11-27T03:52:02.151Z,1030.94
2022-11-27T03:53:02.255Z,1030.96
2022-11-27T03:54:02.118Z,1030.99
2022-11-27T03:55:02.121Z,1030.96
2022-11-27T03:56:06.809Z,1030.95
2022-11-27T03:57:03.099Z,1030.96
2022-11-27T03:58:02.088Z,1030.99
2022-11-27T03:59:02.058Z,1030.95
2022-11-27T04:00:02.052Z,1030.95
2022-11-27T04:01:02.038Z,1031.02
2022-11-27T04:02:02.081Z,1031.04
2022-11-27T04:03:02.039Z,1031.08
2022-11-27T04:04:02.042Z,1031.10
2022-11-27T04:05:02.012Z,1031.09
2022-11-27T04:06:02.045Z,1031.10
2022-11-27T04:07:01.969Z,1031.11
2022-11-27T04:08:02.001Z,1031.11
2022-11-27T04:09:01.959Z,1031.18
2022-11-27T04:10:01.930Z,1031.21
2022-11-27T04:11:01.957Z,1031.20
2022-11-27T04:12:01.918Z,1031.23
2022-11-27T04:13:01.928Z,1031.20
2022-11-27T04:14:01.890Z,1031.22
2022-11-27T04:15:01.902Z,1031.23
2022-11-27T04:16:02.043Z,1031.26
2022-11-27T04:17:01.867Z,1031.29
2022-11-27T04:18:01.868Z,1031.30
2022-11-27T04:19:01.848Z,1031.30
2022-11-27T04:20:01.821Z,1031.30
2022-11-27T04:21:01.820Z,1031.30
2022-11-27T04:22:01.803Z,1031.34
2022-11-27T04:23:01.839Z,1031.32
2022-11-27T04:24:01.775Z,1031.31
2022-11-27T04:25:01.775Z,1031.29
2022-11-27T04:26:01.769Z,1031.33
2022-11-27T04:27:01.747Z,1031.32
2022-11-27T04:28:01.760Z,1031.35
2022-11-27T04:29:01.749Z,1031.33
2022-11-27T04:30:01.713Z,1031.32
2022-11-27T04:31:01.787Z,1031.35
2022-11-27T04:32:01.680Z,1031.34
2022-11-27T04:33:01.709Z,1031.37
2022-11-27T04:34:01.673Z,1031.40
2022-11-27T04:35:01.703Z,1031.37
2022-11-27T04:36:01.650Z,1031.37
2022-11-27T04:37:01.641Z,1031.40
2022-11-27T04:38:01.676Z,1031.38
2022-11-27T04:39:01.609Z,1031.41
2022-11-27T04:40:01.609Z,1031.40
2022-11-27T04:41:01.593Z,1031.47
2022-11-27T04:42:01.580Z,1031.51
2022-11-27T04:43:01.591Z,1031.44
2022-11-27T04:44:01.568Z,1031.42
2022-11-27T04:45:01.550Z,1031.43
2022-11-27T04:46:01.545Z,1031.44
2022-11-27T04:47:01.578Z,1031.42
2022-11-27T04:48:01.597Z,1031.38
2022-11-27T04:49:01.511Z,1031.39
2022-11-27T04:50:01.495Z,1031.39
2022-11-27T04:51:01.489Z,1031.39
2022-11-27T04:52:01.487Z,1031.36
2022-11-27T04:53:01.480Z,1031.37
2022-11-27T04:54:01.452Z,1031.38
2022-11-27T04:55:01.452Z,1031.40
2022-11-27T04:56:01.448Z,1031.39
2022-11-27T04:57:01.421Z,1031.38
2022-11-27T04:58:01.431Z,1031.37
2022-11-27T04:59:01.409Z,1031.34
2022-11-27T05:00:01.384Z,1031.38
2022-11-27T05:01:01.452Z,1031.41
2022-11-27T05:02:01.381Z,1031.42
2022-11-27T05:03:01.390Z,1031.40
2022-11-27T05:04:01.348Z,1031.39
2022-11-27T05:05:01.343Z,1031.41
2022-11-27T05:06:01.333Z,1031.37
2022-11-27T05:07:01.310Z,1031.41
2022-11-27T05:08:01.384Z,1031.43
2022-11-27T05:09:01.294Z,1031.42
2022-11-27T05:10:01.271Z,1031.41
2022-11-27T05:11:01.250Z,1031.45
2022-11-27T05:12:01.260Z,1031.47
2022-11-27T05:13:01.240Z,1031.47
2022-11-27T05:14:01.226Z,1031.49
2022-11-27T05:15:08.765Z,1031.44
2022-11-27T05:16:09.494Z,1031.46
2022-11-27T05:17:01.228Z,1031.46
2022-11-27T05:18:01.214Z,1031.49
2022-11-27T05:19:01.165Z,1031.49
2022-11-27T05:20:01.174Z,1031.50
2022-11-27T05:21:01.150Z,1031.52
2022-11-27T05:22:01.146Z,1031.51
2022-11-27T05:23:01.165Z,1031.55
2022-11-27T05:24:01.126Z,1031.55
2022-11-27T05:25:01.115Z,1031.50
2022-11-27T05:26:01.124Z,1031.50
2022-11-27T05:27:01.088Z,1031.51
2022-11-27T05:28:01.088Z,1031.52
2022-11-27T05:29:01.059Z,1031.53
2022-11-27T05:30:01.087Z,1031.53
2022-11-27T05:31:01.068Z,1031.53
2022-11-27T05:32:01.058Z,1031.54
2022-11-27T05:33:01.043Z,1031.55
2022-11-27T05:34:01.025Z,1031.54
2022-11-27T05:35:00.997Z,1031.54
2022-11-27T05:36:00.996Z,1031.56
2022-11-27T05:37:00.974Z,1031.57
2022-11-27T05:38:00.976Z,1031.53
2022-11-27T05:39:00.949Z,1031.54
2022-11-27T05:40:00.958Z,1031.52
2022-11-27T05:41:00.945Z,1031.55
2022-11-27T05:42:00.927Z,1031.54
2022-11-27T05:43:00.936Z,1031.57
2022-11-27T05:44:00.916Z,1031.59
2022-11-27T05:45:00.888Z,1031.62
2022-11-27T05:46:00.887Z,1031.62
2022-11-27T05:47:00.943Z,1031.59
2022-11-27T05:48:00.883Z,1031.58
2022-11-27T05:49:00.836Z,1031.61
2022-11-27T05:50:00.844Z,1031.60
2022-11-27T05:51:00.855Z,1031.68
2022-11-27T05:52:00.820Z,1031.71
2022-11-27T05:53:00.826Z,1031.73
2022-11-27T05:54:00.787Z,1031.72
2022-11-27T05:55:00.796Z,1031.73
2022-11-27T05:56:00.781Z,1031.72
2022-11-27T05:57:00.773Z,1031.69
2022-11-27T05:58:00.777Z,1031.71
2022-11-27T05:59:01.669Z,1031.71
2022-11-27T06:00:00.740Z,1031.74
2022-11-27T06:01:04.609Z,1031.76
2022-11-27T06:02:00.730Z,1031.75
2022-11-27T06:03:00.840Z,1031.79
2022-11-27T06:04:00.692Z,1031.80
2022-11-27T06:05:00.668Z,1031.78
2022-11-27T06:06:00.657Z,1031.79
2022-11-27T06:07:00.669Z,1031.81
2022-11-27T06:08:00.670Z,1031.85
2022-11-27T06:09:00.628Z,1031.89
2022-11-27T06:10:00.636Z,1031.92
2022-11-27T06:11:00.620Z,1031.93
2022-11-27T06:12:00.598Z,1031.92
2022-11-27T06:13:00.608Z,1031.94
2022-11-27T06:14:00.598Z,1031.94
2022-11-27T06:15:00.571Z,1031.95
2022-11-27T06:16:00.604Z,1031.98
2022-11-27T06:17:00.550Z,1031.98
2022-11-27T06:18:00.547Z,1031.98
2022-11-27T06:19:00.517Z,1032.01
2022-11-27T06:20:00.537Z,1032.00
2022-11-27T06:21:00.503Z,1031.98
2022-11-27T06:22:00.495Z,1031.98
2022-11-27T06:23:00.509Z,1031.99
2022-11-27T06:24:00.458Z,1032.01
2022-11-27T06:25:00.461Z,1031.99
2022-11-27T06:26:00.458Z,1032.05
2022-11-27T06:27:00.442Z,1032.03
2022-11-27T06:28:00.429Z,1032.08
2022-11-27T06:29:00.407Z,1032.07
2022-11-27T06:30:00.401Z,1032.11
2022-11-27T06:31:00.405Z,1032.14
2022-11-27T06:32:00.438Z,1032.22
2022-11-27T06:33:00.404Z,1032.28
2022-11-27T06:34:00.369Z,1032.37
2022-11-27T06:35:00.346Z,1032.34
2022-11-27T06:36:00.358Z,1032.36
2022-11-27T06:37:00.608Z,1032.38
2022-11-27T06:38:00.309Z,1032.47
2022-11-27T06:39:00.340Z,1032.48
2022-11-27T06:40:00.301Z,1032.47
2022-11-27T06:41:00.272Z,1032.39
2022-11-27T06:42:00.289Z,1032.38
2022-11-27T06:43:00.279Z,1032.39
2022-11-27T06:44:00.263Z,1032.39
2022-11-27T06:45:00.228Z,1032.46
2022-11-27T06:46:00.278Z,1032.50
2022-11-27T06:47:00.213Z,1032.49
2022-11-27T06:48:00.219Z,1032.51
2022-11-27T06:49:00.215Z,1032.51
2022-11-27T06:50:00.207Z,1032.48
2022-11-27T06:51:00.196Z,1032.48
2022-11-27T06:52:00.179Z,1032.49
2022-11-27T06:53:00.196Z,1032.48
2022-11-27T06:54:00.192Z,1032.47
2022-11-27T06:55:00.129Z,1032.45
2022-11-27T06:56:00.129Z,1032.39
2022-11-27T06:57:00.120Z,1032.39
2022-11-27T06:58:00.100Z,1032.47
2022-11-27T06:59:00.125Z,1032.49
2022-11-27T07:00:00.112Z,1032.53
2022-11-27T07:01:00.239Z,1032.57
2022-11-27T07:02:00.155Z,1032.55
2022-11-27T07:03:00.096Z,1032.56
2022-11-27T07:04:00.038Z,1032.59
2022-11-27T07:05:00.024Z,1032.59
2022-11-27T07:06:00.021Z,1032.60
2022-11-27T07:06:59.999Z,1032.60
2022-11-27T07:08:00.060Z,1032.60
2022-11-27T07:09:00.263Z,1032.59
2022-11-27T07:09:59.963Z,1032.60
2022-11-27T07:10:59.979Z,1032.61
2022-11-27T07:11:59.950Z,1032.62
2022-11-27T07:12:59.959Z,1032.71
2022-11-27T07:13:59.929Z,1032.79
2022-11-27T07:15:03.997Z,1032.79
2022-11-27T07:15:59.917Z,1032.81
2022-11-27T07:16:59.883Z,1032.80
2022-11-27T07:17:59.901Z,1032.82
2022-11-27T07:18:59.869Z,1032.82
2022-11-27T07:19:59.846Z,1032.82
2022-11-27T07:20:59.861Z,1032.83
2022-11-27T07:21:59.883Z,1032.84
2022-11-27T07:22:59.820Z,1032.83
2022-11-27T07:23:59.831Z,1032.82
2022-11-27T07:24:59.805Z,1032.82
2022-11-27T07:25:59.866Z,1032.83
2022-11-27T07:26:59.778Z,1032.83
2022-11-27T07:27:59.787Z,1032.82
2022-11-27T07:28:59.763Z,1032.84
2022-11-27T07:29:59.742Z,1032.83
2022-11-27T07:30:59.858Z,1032.85
2022-11-27T07:31:59.958Z,1032.84
2022-11-27T07:32:59.722Z,1032.87
2022-11-27T07:33:59.722Z,1033.02
2022-11-27T07:34:59.710Z,1033.02
2022-11-27T07:35:59.683Z,1032.86
2022-11-27T07:36:59.683Z,1032.86
2022-11-27T07:38:03.752Z,1032.86
2022-11-27T07:38:59.665Z,1033.03
2022-11-27T07:40:03.563Z,1033.02
2022-11-27T07:41:00.160Z,1033.04
2022-11-27T07:42:00.111Z,1033.05
2022-11-27T07:43:00.592Z,1033.06
2022-11-27T07:43:59.613Z,1033.06
2022-11-27T07:44:59.603Z,1033.04
2022-11-27T07:45:59.615Z,1033.05
2022-11-27T07:46:59.597Z,1033.07
2022-11-27T07:47:59.543Z,1033.06
2022-11-27T07:48:59.543Z,1033.06
2022-11-27T07:49:59.543Z,1033.06
2022-11-27T07:50:59.543Z,1033.07
2022-11-27T07:51:59.531Z,1033.08
2022-11-27T07:52:59.493Z,1033.09
2022-11-27T07:53:59.513Z,1033.08
2022-11-27T07:54:59.472Z,1033.26
2022-11-27T07:55:59.463Z,1033.28
2022-11-27T07:56:59.483Z,1033.28
2022-11-27T07:57:59.462Z,1033.30
2022-11-27T07:58:59.448Z,1033.31
2022-11-27T07:59:59.423Z,1033.32
2022-11-27T08:00:59.513Z,1033.32
2022-11-27T08:01:59.582Z,1033.33
2022-11-27T08:02:59.374Z,1033.33
2022-11-27T08:03:59.395Z,1033.34
2022-11-27T08:04:59.443Z,1033.51
2022-11-27T08:05:59.394Z,1033.53
2022-11-27T08:06:59.375Z,1033.54
2022-11-27T08:07:59.447Z,1033.57
2022-11-27T08:08:59.344Z,1033.56
2022-11-27T08:09:59.603Z,1033.57
2022-11-27T08:10:59.327Z,1033.59
2022-11-27T08:11:59.370Z,1033.75
2022-11-27T08:12:59.309Z,1033.76
2022-11-27T08:13:59.279Z,1033.76
2022-11-27T08:14:59.262Z,1033.77
2022-11-27T08:15:59.284Z,1033.78
2022-11-27T08:16:59.236Z,1033.79
2022-11-27T08:17:59.345Z,1033.78
2022-11-27T08:18:59.349Z,1033.80
2022-11-27T08:19:59.179Z,1033.80
2022-11-27T08:20:59.205Z,1033.82
2022-11-27T08:21:59.895Z,1033.82
2022-11-27T08:23:02.691Z,1033.84
2022-11-27T08:23:59.156Z,1033.84
2022-11-27T08:24:59.135Z,1034.00
2022-11-27T08:26:06.375Z,1034.01
2022-11-27T08:26:59.159Z,1034.03
2022-11-27T08:27:59.112Z,1034.04
2022-11-27T08:28:59.120Z,1034.05
2022-11-27T08:29:59.109Z,1034.06
2022-11-27T08:30:59.073Z,1034.07
2022-11-27T08:31:59.126Z,1034.07
2022-11-27T08:32:59.040Z,1034.09
2022-11-27T08:33:59.059Z,1034.09
2022-11-27T08:34:59.022Z,1034.09
2022-11-27T08:35:59.039Z,1034.27
2022-11-27T08:36:59.002Z,1034.28
2022-11-27T08:37:58.997Z,1034.30
2022-11-27T08:38:59.013Z,1034.32
2022-11-27T08:39:58.970Z,1034.31
2022-11-27T08:40:58.970Z,1034.32
2022-11-27T08:41:58.967Z,1034.32
2022-11-27T08:42:58.939Z,1034.33
2022-11-27T08:43:58.953Z,1034.34
2022-11-27T08:45:00.104Z,1034.33
2022-11-27T08:45:58.933Z,1034.52
2022-11-27T08:46:58.888Z,1034.53
2022-11-27T08:47:58.869Z,1034.52
2022-11-27T08:48:58.891Z,1034.54
2022-11-27T08:49:58.892Z,1034.53
2022-11-27T08:50:58.843Z,1034.52
2022-11-27T08:51:58.831Z,1034.53
2022-11-27T08:52:58.848Z,1034.55
2022-11-27T08:53:58.814Z,1034.55
2022-11-27T08:54:58.820Z,1034.55
2022-11-27T08:55:58.832Z,1034.55
2022-11-27T08:56:58.791Z,1034.56
2022-11-27T08:57:58.842Z,1034.59
2022-11-27T08:58:58.762Z,1034.61
2022-11-27T08:59:58.761Z,1034.61
2022-11-27T09:00:58.765Z,1034.78
2022-11-27T09:01:58.722Z,1034.79
2022-11-27T09:02:58.711Z,1034.80
2022-11-27T09:03:58.797Z,1034.82
2022-11-27T09:04:58.721Z,1034.83
2022-11-27T09:05:58.683Z,1034.86
2022-11-27T09:06:58.990Z,1034.87
2022-11-27T09:07:58.693Z,1035.06
2022-11-27T09:08:58.637Z,1035.07
2022-11-27T09:09:58.661Z,1035.06
2022-11-27T09:10:58.609Z,1034.89
2022-11-27T09:11:58.597Z,1035.06
2022-11-27T09:12:58.607Z,1035.07
2022-11-27T09:13:58.582Z,1035.07
2022-11-27T09:14:58.582Z,1035.08
2022-11-27T09:15:58.550Z,1035.08
2022-11-27T09:16:58.626Z,1035.09
2022-11-27T09:17:58.526Z,1035.11
2022-11-27T09:18:58.573Z,1035.13
2022-11-27T09:19:58.527Z,1035.14
2022-11-27T09:20:58.503Z,1035.14
2022-11-27T09:21:58.520Z,1035.14
2022-11-27T09:22:58.483Z,1035.14
2022-11-27T09:23:58.474Z,1035.14
2022-11-27T09:24:58.451Z,1035.14
2022-11-27T09:25:58.483Z,1035.15
2022-11-27T09:26:58.462Z,1035.14
2022-11-27T09:27:58.416Z,1035.14
2022-11-27T09:28:58.477Z,1035.15
2022-11-27T09:29:58.395Z,1035.15
2022-11-27T09:30:58.373Z,1035.15
2022-11-27T09:31:58.439Z,1035.16
2022-11-27T09:32:58.357Z,1035.14
2022-11-27T09:33:58.411Z,1035.16
2022-11-27T09:34:58.452Z,1035.34
2022-11-27T09:35:58.433Z,1035.36
2022-11-27T09:36:58.318Z,1035.36
2022-11-27T09:37:58.305Z,1035.38
2022-11-27T09:38:58.296Z,1035.38
2022-11-27T09:39:58.314Z,1035.37
2022-11-27T09:41:02.972Z,1035.37
2022-11-27T09:41:59.270Z,1035.37
2022-11-27T09:42:58.275Z,1035.40
2022-11-27T09:43:58.324Z,1035.42
2022-11-27T09:44:58.225Z,1035.43
2022-11-27T09:45:58.284Z,1035.43
2022-11-27T09:46:58.196Z,1035.43
2022-11-27T09:47:58.207Z,1035.46
2022-11-27T09:48:58.239Z,1035.47
2022-11-27T09:49:58.176Z,1035.63
2022-11-27T09:50:58.191Z,1035.63
2022-11-27T09:51:58.157Z,1035.65
2022-11-27T09:52:58.149Z,1035.67
2022-11-27T09:53:58.951Z,1035.68
2022-11-27T09:54:58.100Z,1035.71
2022-11-27T09:55:58.096Z,1035.73
2022-11-27T09:57:02.696Z,1035.75
2022-11-27T09:57:58.076Z,1035.75
2022-11-27T09:58:58.080Z,1035.92
2022-11-27T09:59:58.066Z,1035.91
2022-11-27T10:00:58.055Z,1035.95
2022-11-27T10:01:58.068Z,1035.97
2022-11-27T10:02:58.091Z,1036.00
2022-11-27T10:03:58.008Z,1036.02
2022-11-27T10:05:13.433Z,1036.01
2022-11-27T10:05:59.005Z,1036.05
2022-11-27T10:06:58.038Z,1036.22
2022-11-27T10:08:04.672Z,1036.28
2022-11-27T10:08:58.979Z,1036.31
2022-11-27T10:09:57.947Z,1036.35
2022-11-27T10:10:57.962Z,1036.51
2022-11-27T10:11:57.917Z,1036.33
2022-11-27T10:12:57.926Z,1036.34
2022-11-27T10:13:57.907Z,1036.35
2022-11-27T10:14:57.896Z,1036.35
2022-11-27T10:15:57.867Z,1036.52
2022-11-27T10:16:57.967Z,1036.54
2022-11-27T10:17:58.587Z,1036.56
2022-11-27T10:18:57.838Z,1036.55
2022-11-27T10:19:57.838Z,1036.56
2022-11-27T10:20:57.828Z,1036.57
2022-11-27T10:21:57.830Z,1036.59
2022-11-27T10:22:57.808Z,1036.59
2022-11-27T10:23:57.789Z,1036.60
2022-11-27T10:24:57.812Z,1036.59
2022-11-27T10:25:57.757Z,1036.62
2022-11-27T10:26:57.758Z,1036.63
2022-11-27T10:27:57.738Z,1036.61
2022-11-27T10:28:57.730Z,1036.62
2022-11-27T10:29:57.731Z,1036.56
2022-11-27T10:30:57.702Z,1036.55
2022-11-27T10:31:57.780Z,1036.56
2022-11-27T10:32:57.800Z,1036.57
2022-11-27T10:33:57.740Z,1036.57
2022-11-27T10:34:57.659Z,1036.59
2022-11-27T10:35:57.676Z,1036.61
2022-11-27T10:36:57.645Z,1036.65
2022-11-27T10:38:01.006Z,1036.58
2022-11-27T10:38:58.639Z,1036.37
2022-11-27T10:39:57.623Z,1036.27
2022-11-27T10:40:57.604Z,1036.06
2022-11-27T10:41:57.587Z,1035.91
2022-11-27T10:42:57.590Z,1035.58
2022-11-27T10:43:57.575Z,1035.66
2022-11-27T10:44:57.550Z,1035.60
2022-11-27T10:45:57.621Z,1035.59
2022-11-27T10:46:57.531Z,1035.28
2022-11-27T10:47:57.522Z,1035.02
2022-11-27T10:48:57.541Z,1034.75
2022-11-27T10:49:57.501Z,1034.50
2022-11-27T10:50:57.519Z,1034.36
2022-11-27T10:51:57.619Z,1034.12
2022-11-27T10:52:57.470Z,1034.03
2022-11-27T10:53:57.462Z,1033.91
2022-11-27T10:54:57.441Z,1033.72
2022-11-27T10:55:57.453Z,1033.60
2022-11-27T10:56:57.436Z,1033.63
2022-11-27T10:57:57.436Z,1033.74
2022-11-27T10:58:57.395Z,1033.67
2022-11-27T10:59:57.392Z,1033.66
2022-11-27T11:00:57.428Z,1033.72
2022-11-27T11:01:57.436Z,1033.74
2022-11-27T11:02:57.353Z,1033.96
2022-11-27T11:03:57.366Z,1034.45
2022-11-27T11:05:24.127Z,1034.50
2022-11-27T11:06:19.323Z,1034.59
2022-11-27T11:06:58.323Z,1034.61
2022-11-27T11:07:57.341Z,1034.57
2022-11-27T11:09:01.340Z,1034.69
2022-11-27T11:09:57.284Z,1034.76
2022-11-27T11:10:57.608Z,1034.79
2022-11-27T11:11:57.249Z,1034.74
2022-11-27T11:12:57.265Z,1034.75
2022-11-27T11:13:57.254Z,1034.81
2022-11-27T11:14:57.237Z,1034.81
2022-11-27T11:15:57.225Z,1034.97
2022-11-27T11:16:57.281Z,1035.01
2022-11-27T11:17:57.191Z,1034.98
2022-11-27T11:18:57.183Z,1034.94
2022-11-27T11:19:57.177Z,1034.86
2022-11-27T11:20:57.202Z,1034.55
2022-11-27T11:21:57.146Z,1034.36
2022-11-27T11:22:57.136Z,1034.36
2022-11-27T11:23:57.137Z,1034.44
2022-11-27T11:24:57.107Z,1034.51
2022-11-27T11:25:57.132Z,1034.75
2022-11-27T11:26:57.086Z,1034.86
2022-11-27T11:27:57.109Z,1034.22
2022-11-27T11:28:57.063Z,1033.86
2022-11-27T11:29:57.077Z,1033.42
2022-11-27T11:30:57.118Z,1033.24
2022-11-27T11:31:57.124Z,1032.84
2022-11-27T11:32:57.015Z,1032.34
2022-11-27T11:33:57.055Z,1031.72
2022-11-27T11:35:00.888Z,1031.38
2022-11-27T11:35:57.029Z,1030.98
2022-11-27T11:36:56.986Z,1030.76
2022-11-27T11:37:56.957Z,1030.77
2022-11-27T11:38:56.955Z,1030.70
2022-11-27T11:39:56.969Z,1030.66
2022-11-27T11:40:56.954Z,1031.06
2022-11-27T11:41:56.927Z,1031.17
2022-11-27T11:42:56.908Z,1031.28
2022-11-27T11:43:56.917Z,1031.20
2022-11-27T11:44:56.908Z,1031.06
2022-11-27T11:45:56.905Z,1030.98
2022-11-27T11:46:56.876Z,1030.71
2022-11-27T11:47:56.855Z,1030.38
2022-11-27T11:48:56.851Z,1030.23
2022-11-27T11:49:56.858Z,1030.12
2022-11-27T11:50:56.837Z,1030.26
2022-11-27T11:51:56.821Z,1030.27
2022-11-27T11:52:56.806Z,1030.31
2022-11-27T11:53:56.798Z,1030.27
2022-11-27T11:54:56.787Z,1030.30
2022-11-27T11:55:56.787Z,1030.22
2022-11-27T11:56:56.765Z,1030.24
2022-11-27T11:57:56.753Z,1030.38
2022-11-27T11:58:56.731Z,1030.51
2022-11-27T11:59:56.740Z,1030.94
2022-11-27T12:01:25.342Z,1031.09
2022-11-27T12:01:57.708Z,1030.98
2022-11-27T12:02:56.720Z,1031.02
2022-11-27T12:03:56.681Z,1031.08
2022-11-27T12:04:56.707Z,1031.05